sensor_id;sensor_type;location;lat;lon;timestamp;pressure;altitude;pressure_sealevel;temperature;humidity
15884;BME280;8040;50.254;10.960;2023-02-17T00:00:02;98923.03;;;6.14;73.25
15884;BME280;8040;50.254;10.960;2023-02-17T00:02:27;98924.63;;;6.10;73.44
15884;BME280;8040;50.254;10.960;2023-02-17T00:04:53;98917.00;;;6.02;73.60
15884;BME280;8040;50.254;10.960;2023-02-17T00:07:18;98921.06;;;6.04;73.71
15884;BME280;8040;50.254;10.960;2023-02-17T00:09:43;98920.81;;;6.06;73.42
15884;BME280;8040;50.254;10.960;2023-02-17T00:12:11;98918.41;;;6.09;73.32
15884;BME280;8040;50.254;10.960;2023-02-17T00:14:39;98905.44;;;6.01;72.87
15884;BME280;8040;50.254;10.960;2023-02-17T00:17:05;98906.22;;;6.02;73.27
15884;BME280;8040;50.254;10.960;2023-02-17T00:19:31;98916.81;;;6.08;73.35
15884;BME280;8040;50.254;10.960;2023-02-17T00:22:00;98900.09;;;6.06;72.83
15884;BME280;8040;50.254;10.960;2023-02-17T00:24:28;98916.56;;;6.15;73.16
15884;BME280;8040;50.254;10.960;2023-02-17T00:26:54;98908.78;;;6.13;73.13
15884;BME280;8040;50.254;10.960;2023-02-17T00:29:20;98900.66;;;6.08;73.11
15884;BME280;8040;50.254;10.960;2023-02-17T00:31:46;98901.13;;;6.05;73.15
15884;BME280;8040;50.254;10.960;2023-02-17T00:34:11;98900.13;;;6.11;73.55
15884;BME280;8040;50.254;10.960;2023-02-17T00:36:37;98893.94;;;6.11;73.20
15884;BME280;8040;50.254;10.960;2023-02-17T00:39:04;98893.13;;;6.10;73.20
15884;BME280;8040;50.254;10.960;2023-02-17T00:41:30;98880.72;;;6.09;73.38
15884;BME280;8040;50.254;10.960;2023-02-17T00:43:55;98893.94;;;6.11;73.95
15884;BME280;8040;50.254;10.960;2023-02-17T00:46:21;98886.41;;;6.13;73.82
15884;BME280;8040;50.254;10.960;2023-02-17T00:48:47;98889.16;;;6.18;73.96
15884;BME280;8040;50.254;10.960;2023-02-17T00:51:14;98902.63;;;6.18;73.89
15884;BME280;8040;50.254;10.960;2023-02-17T00:53:40;98900.94;;;6.12;73.41
15884;BME280;8040;50.254;10.960;2023-02-17T00:56:05;98880.59;;;5.99;74.32
15884;BME280;8040;50.254;10.960;2023-02-17T00:58:31;98902.06;;;6.16;74.00
15884;BME280;8040;50.254;10.960;2023-02-17T01:00:57;98895.81;;;6.10;74.21
15884;BME280;8040;50.254;10.960;2023-02-17T01:03:22;98903.69;;;6.17;74.80
15884;BME280;8040;50.254;10.960;2023-02-17T01:05:49;98913.63;;;6.16;75.08
15884;BME280;8040;50.254;10.960;2023-02-17T01:08:16;98905.81;;;6.15;75.15
15884;BME280;8040;50.254;10.960;2023-02-17T01:10:44;98902.06;;;6.16;74.75
15884;BME280;8040;50.254;10.960;2023-02-17T01:13:10;98904.06;;;6.30;74.68
15884;BME280;8040;50.254;10.960;2023-02-17T01:15:37;98873.19;;;6.11;75.15
15884;BME280;8040;50.254;10.960;2023-02-17T01:18:03;98877.59;;;6.22;74.87
15884;BME280;8040;50.254;10.960;2023-02-17T01:20:28;98868.94;;;6.15;75.22
15884;BME280;8040;50.254;10.960;2023-02-17T01:22:54;98879.50;;;6.22;75.38
15884;BME280;8040;50.254;10.960;2023-02-17T01:25:19;98885.78;;;6.32;75.88
15884;BME280;8040;50.254;10.960;2023-02-17T01:27:44;98870.13;;;6.29;75.73
15884;BME280;8040;50.254;10.960;2023-02-17T01:30:11;98865.56;;;6.30;75.19
15884;BME280;8040;50.254;10.960;2023-02-17T01:32:37;98861.28;;;6.34;75.27
15884;BME280;8040;50.254;10.960;2023-02-17T01:35:03;98861.78;;;6.31;75.57
15884;BME280;8040;50.254;10.960;2023-02-17T01:37:31;98854.78;;;6.30;76.13
15884;BME280;8040;50.254;10.960;2023-02-17T01:39:57;98849.63;;;6.28;76.25
15884;BME280;8040;50.254;10.960;2023-02-17T01:42:23;98837.00;;;6.29;76.03
15884;BME280;8040;50.254;10.960;2023-02-17T01:47:59;98834.56;;;6.27;75.56
15884;BME280;8040;50.254;10.960;2023-02-17T01:50:36;98836.75;;;6.35;76.04
15884;BME280;8040;50.254;10.960;2023-02-17T01:53:05;98839.97;;;6.32;76.21
15884;BME280;8040;50.254;10.960;2023-02-17T01:55:32;98824.91;;;6.31;76.14
15884;BME280;8040;50.254;10.960;2023-02-17T01:58:00;98819.28;;;6.38;76.22
15884;BME280;8040;50.254;10.960;2023-02-17T02:00:28;98806.13;;;6.46;75.68
15884;BME280;8040;50.254;10.960;2023-02-17T02:02:56;98803.09;;;6.38;75.83
15884;BME280;8040;50.254;10.960;2023-02-17T02:05:22;98821.41;;;6.36;75.81
15884;BME280;8040;50.254;10.960;2023-02-17T02:07:49;98818.19;;;6.34;76.05
15884;BME280;8040;50.254;10.960;2023-02-17T02:10:18;98818.44;;;6.32;75.96
15884;BME280;8040;50.254;10.960;2023-02-17T02:12:44;98806.00;;;6.26;76.33
15884;BME280;8040;50.254;10.960;2023-02-17T02:15:18;98814.13;;;6.31;76.29
15884;BME280;8040;50.254;10.960;2023-02-17T02:32:30;98806.72;;;6.53;76.48
15884;BME280;8040;50.254;10.960;2023-02-17T02:38:01;98797.84;;;6.58;76.66
15884;BME280;8040;50.254;10.960;2023-02-17T02:40:33;98783.50;;;6.47;76.38
15884;BME280;8040;50.254;10.960;2023-02-17T02:43:01;98797.34;;;6.61;76.40
15884;BME280;8040;50.254;10.960;2023-02-17T02:45:28;98795.97;;;6.58;76.23
15884;BME280;8040;50.254;10.960;2023-02-17T02:47:55;98786.22;;;6.52;76.25
15884;BME280;8040;50.254;10.960;2023-02-17T02:50:30;98793.81;;;6.60;76.54
15884;BME280;8040;50.254;10.960;2023-02-17T02:56:04;98787.88;;;6.58;77.11
15884;BME280;8040;50.254;10.960;2023-02-17T02:58:51;98793.28;;;6.58;77.06
15884;BME280;8040;50.254;10.960;2023-02-17T03:01:31;98792.00;;;6.71;76.79
15884;BME280;8040;50.254;10.960;2023-02-17T03:06:43;98766.38;;;6.68;76.67
15884;BME280;8040;50.254;10.960;2023-02-17T03:09:13;98754.00;;;6.67;76.51
15884;BME280;8040;50.254;10.960;2023-02-17T03:11:40;98763.16;;;6.71;76.63
15884;BME280;8040;50.254;10.960;2023-02-17T03:14:12;98765.00;;;6.61;76.63
15884;BME280;8040;50.254;10.960;2023-02-17T03:16:39;98774.66;;;6.57;76.68
15884;BME280;8040;50.254;10.960;2023-02-17T03:19:05;98766.25;;;6.48;76.55
15884;BME280;8040;50.254;10.960;2023-02-17T03:21:45;98774.66;;;6.57;76.87
15884;BME280;8040;50.254;10.960;2023-02-17T03:24:12;98767.66;;;6.56;77.06
15884;BME280;8040;50.254;10.960;2023-02-17T03:26:37;98765.22;;;6.54;77.61
15884;BME280;8040;50.254;10.960;2023-02-17T03:29:03;98757.16;;;6.59;78.06
15884;BME280;8040;50.254;10.960;2023-02-17T03:31:28;98760.94;;;6.58;77.78
15884;BME280;8040;50.254;10.960;2023-02-17T03:33:54;98759.88;;;6.64;77.79
15884;BME280;8040;50.254;10.960;2023-02-17T03:36:20;98764.50;;;6.69;77.87
15884;BME280;8040;50.254;10.960;2023-02-17T03:38:45;98769.63;;;6.70;77.83
15884;BME280;8040;50.254;10.960;2023-02-17T03:41:10;98765.59;;;6.73;78.07
15884;BME280;8040;50.254;10.960;2023-02-17T03:43:36;98771.25;;;6.71;77.88
15884;BME280;8040;50.254;10.960;2023-02-17T03:46:01;98755.59;;;6.68;77.74
15884;BME280;8040;50.254;10.960;2023-02-17T03:48:26;98766.13;;;6.75;77.89
15884;BME280;8040;50.254;10.960;2023-02-17T03:50:52;98760.50;;;6.76;77.93
15884;BME280;8040;50.254;10.960;2023-02-17T03:53:17;98755.34;;;6.75;77.95
15884;BME280;8040;50.254;10.960;2023-02-17T03:55:43;98748.06;;;6.70;78.00
15884;BME280;8040;50.254;10.960;2023-02-17T03:58:08;98762.13;;;6.82;77.87
15884;BME280;8040;50.254;10.960;2023-02-17T04:00:33;98749.16;;;6.74;77.53
15884;BME280;8040;50.254;10.960;2023-02-17T04:02:59;98751.06;;;6.79;77.81
15884;BME280;8040;50.254;10.960;2023-02-17T04:05:24;98741.94;;;6.85;77.56
15884;BME280;8040;50.254;10.960;2023-02-17T04:07:51;98753.78;;;6.84;77.44
15884;BME280;8040;50.254;10.960;2023-02-17T04:10:16;98738.94;;;6.81;77.81
15884;BME280;8040;50.254;10.960;2023-02-17T04:12:42;98731.13;;;6.80;78.06
15884;BME280;8040;50.254;10.960;2023-02-17T04:15:07;98726.56;;;6.80;78.12
15884;BME280;8040;50.254;10.960;2023-02-17T04:17:35;98733.88;;;6.95;77.76
15884;BME280;8040;50.254;10.960;2023-02-17T04:20:03;98724.66;;;6.86;78.18
15884;BME280;8040;50.254;10.960;2023-02-17T04:22:28;98719.53;;;6.84;78.02
15884;BME280;8040;50.254;10.960;2023-02-17T04:24:54;98723.09;;;6.90;78.19
15884;BME280;8040;50.254;10.960;2023-02-17T04:27:19;98725.75;;;6.85;78.12
15884;BME280;8040;50.254;10.960;2023-02-17T04:29:44;98727.13;;;6.87;78.17
15884;BME280;8040;50.254;10.960;2023-02-17T04:32:10;98733.88;;;6.95;78.35
15884;BME280;8040;50.254;10.960;2023-02-17T04:34:35;98728.75;;;6.93;78.24
15884;BME280;8040;50.254;10.960;2023-02-17T04:37:01;98737.41;;;7.00;78.41
15884;BME280;8040;50.254;10.960;2023-02-17T04:39:26;98734.72;;;7.05;78.38
15884;BME280;8040;50.254;10.960;2023-02-17T04:41:54;98740.63;;;7.02;78.27
15884;BME280;8040;50.254;10.960;2023-02-17T04:44:19;98742.53;;;7.02;78.28
15884;BME280;8040;50.254;10.960;2023-02-17T04:46:44;98727.44;;;7.01;78.34
15884;BME280;8040;50.254;10.960;2023-02-17T04:49:10;98728.25;;;7.06;78.27
15884;BME280;8040;50.254;10.960;2023-02-17T04:51:35;98732.03;;;7.05;78.22
15884;BME280;8040;50.254;10.960;2023-02-17T04:54:03;98734.47;;;7.12;78.48
15884;BME280;8040;50.254;10.960;2023-02-17T04:56:29;98718.28;;;7.02;78.25
15884;BME280;8040;50.254;10.960;2023-02-17T04:58:54;98728.28;;;7.11;78.36
15884;BME280;8040;50.254;10.960;2023-02-17T05:01:19;98705.56;;;6.97;78.36
15884;BME280;8040;50.254;10.960;2023-02-17T05:03:45;98728.28;;;7.11;78.93
15884;BME280;8040;50.254;10.960;2023-02-17T05:06:10;98717.72;;;7.05;78.87
15884;BME280;8040;50.254;10.960;2023-02-17T05:08:35;98709.06;;;6.93;79.12
15884;BME280;8040;50.254;10.960;2023-02-17T05:11:01;98709.88;;;6.93;79.71
15884;BME280;8040;50.254;10.960;2023-02-17T05:13:26;98716.38;;;7.07;79.59
15884;BME280;8040;50.254;10.960;2023-02-17T05:15:52;98715.31;;;7.13;80.78
15884;BME280;8040;50.254;10.960;2023-02-17T05:18:17;98709.69;;;7.24;81.69
15884;BME280;8040;50.254;10.960;2023-02-17T05:20:43;98708.91;;;7.39;82.14
15884;BME280;8040;50.254;10.960;2023-02-17T05:23:08;98720.53;;;7.59;82.74
15884;BME280;8040;50.254;10.960;2023-02-17T05:25:33;98699.75;;;7.60;82.81
15884;BME280;8040;50.254;10.960;2023-02-17T05:27:59;98712.16;;;7.76;82.85
15884;BME280;8040;50.254;10.960;2023-02-17T05:30:24;98707.84;;;7.75;83.14
15884;BME280;8040;50.254;10.960;2023-02-17T05:32:50;98696.78;;;7.81;83.11
15884;BME280;8040;50.254;10.960;2023-02-17T05:35:15;98711.91;;;7.92;83.21
15884;BME280;8040;50.254;10.960;2023-02-17T05:37:41;98702.16;;;7.96;83.07
15884;BME280;8040;50.254;10.960;2023-02-17T05:40:07;98704.88;;;8.01;83.14
15884;BME280;8040;50.254;10.960;2023-02-17T05:42:32;98700.81;;;8.04;82.82
15884;BME280;8040;50.254;10.960;2023-02-17T05:44:58;98692.47;;;8.05;82.64
15884;BME280;8040;50.254;10.960;2023-02-17T05:47:23;98694.06;;;8.11;82.99
15884;BME280;8040;50.254;10.960;2023-02-17T05:49:48;98688.94;;;8.15;83.28
15884;BME280;8040;50.254;10.960;2023-02-17T05:52:14;98689.75;;;8.25;83.51
15884;BME280;8040;50.254;10.960;2023-02-17T05:54:41;98691.09;;;8.28;83.32
15884;BME280;8040;50.254;10.960;2023-02-17T05:57:06;98697.28;;;8.38;83.67
15884;BME280;8040;50.254;10.960;2023-02-17T05:59:31;98704.59;;;8.38;83.21
15884;BME280;8040;50.254;10.960;2023-02-17T06:01:57;98695.41;;;8.29;83.19
15884;BME280;8040;50.254;10.960;2023-02-17T06:04:22;98679.50;;;8.22;83.08
15884;BME280;8040;50.254;10.960;2023-02-17T06:06:47;98701.91;;;8.33;82.67
15884;BME280;8040;50.254;10.960;2023-02-17T06:09:13;98691.63;;;8.30;82.92
15884;BME280;8040;50.254;10.960;2023-02-17T06:11:38;98698.63;;;8.36;83.04
15884;BME280;8040;50.254;10.960;2023-02-17T06:14:03;98695.66;;;8.37;82.92
15884;BME280;8040;50.254;10.960;2023-02-17T06:16:29;98690.50;;;8.41;82.87
15884;BME280;8040;50.254;10.960;2023-02-17T06:18:54;98709.44;;;8.46;82.95
15884;BME280;8040;50.254;10.960;2023-02-17T06:21:20;98696.69;;;8.51;83.31
15884;BME280;8040;50.254;10.960;2023-02-17T06:23:45;98678.88;;;8.45;83.24
15884;BME280;8040;50.254;10.960;2023-02-17T06:26:11;98686.97;;;8.50;83.18
15884;BME280;8040;50.254;10.960;2023-02-17T06:28:36;98684.81;;;8.47;83.16
15884;BME280;8040;50.254;10.960;2023-02-17T06:31:02;98701.31;;;8.51;83.43
15884;BME280;8040;50.254;10.960;2023-02-17T06:33:27;98690.50;;;8.51;83.46
15884;BME280;8040;50.254;10.960;2023-02-17T06:35:53;98694.56;;;8.48;83.70
15884;BME280;8040;50.254;10.960;2023-02-17T06:38:18;98686.69;;;8.52;83.97
15884;BME280;8040;50.254;10.960;2023-02-17T06:40:45;98702.34;;;8.65;83.40
15884;BME280;8040;50.254;10.960;2023-02-17T06:43:10;98705.06;;;8.60;83.84
15884;BME280;8040;50.254;10.960;2023-02-17T06:45:38;98695.31;;;8.64;84.37
15884;BME280;8040;50.254;10.960;2023-02-17T06:48:03;98705.28;;;8.73;85.08
15884;BME280;8040;50.254;10.960;2023-02-17T06:50:28;98683.66;;;8.73;85.01
15884;BME280;8040;50.254;10.960;2023-02-17T06:52:54;98682.28;;;8.81;85.42
15884;BME280;8040;50.254;10.960;2023-02-17T06:55:19;98696.56;;;8.86;85.22
15884;BME280;8040;50.254;10.960;2023-02-17T06:57:45;98692.22;;;8.90;85.51
15884;BME280;8040;50.254;10.960;2023-02-17T07:00:10;98690.81;;;8.98;85.21
15884;BME280;8040;50.254;10.960;2023-02-17T07:02:37;98707.88;;;8.98;84.76
15884;BME280;8040;50.254;10.960;2023-02-17T07:05:03;98707.31;;;9.01;85.00
15884;BME280;8040;50.254;10.960;2023-02-17T07:07:28;98700.53;;;9.04;85.12
15884;BME280;8040;50.254;10.960;2023-02-17T07:09:54;98714.03;;;9.09;85.27
15884;BME280;8040;50.254;10.960;2023-02-17T07:12:20;98702.19;;;9.05;85.46
15884;BME280;8040;50.254;10.960;2023-02-17T07:14:45;98699.72;;;9.08;85.83
15884;BME280;8040;50.254;10.960;2023-02-17T07:17:10;98707.25;;;9.16;86.16
15884;BME280;8040;50.254;10.960;2023-02-17T07:19:36;98714.75;;;9.29;85.98
15884;BME280;8040;50.254;10.960;2023-02-17T07:22:01;98717.78;;;9.23;86.19
15884;BME280;8040;50.254;10.960;2023-02-17T07:24:27;98715.84;;;9.28;86.16
15884;BME280;8040;50.254;10.960;2023-02-17T07:26:52;98721.72;;;9.40;86.23
15884;BME280;8040;50.254;10.960;2023-02-17T07:29:20;98708.47;;;9.39;86.00
15884;BME280;8040;50.254;10.960;2023-02-17T07:31:46;98714.13;;;9.42;85.82
15884;BME280;8040;50.254;10.960;2023-02-17T07:34:11;98707.31;;;9.50;85.67
15884;BME280;8040;50.254;10.960;2023-02-17T07:36:37;98698.91;;;9.51;85.12
15884;BME280;8040;50.254;10.960;2023-02-17T07:39:02;98702.97;;;9.54;85.59
15884;BME280;8040;50.254;10.960;2023-02-17T07:41:28;98708.88;;;9.61;85.57
15884;BME280;8040;50.254;10.960;2023-02-17T07:43:57;98700.72;;;9.66;84.44
15884;BME280;8040;50.254;10.960;2023-02-17T07:46:23;98705.75;;;9.77;84.29
15884;BME280;8040;50.254;10.960;2023-02-17T07:48:48;98707.13;;;9.75;83.74
15884;BME280;8040;50.254;10.960;2023-02-17T07:51:17;98709.81;;;9.80;83.43
15884;BME280;8040;50.254;10.960;2023-02-17T07:53:45;98722.19;;;9.91;83.98
15884;BME280;8040;50.254;10.960;2023-02-17T07:56:12;98712.97;;;9.92;83.54
15884;BME280;8040;50.254;10.960;2023-02-17T07:58:39;98727.50;;;10.01;83.61
15884;BME280;8040;50.254;10.960;2023-02-17T08:01:25;98708.84;;;9.99;82.84
15884;BME280;8040;50.254;10.960;2023-02-17T08:03:51;98717.91;;;9.85;83.55
15884;BME280;8040;50.254;10.960;2023-02-17T08:06:19;98715.44;;;9.88;83.83
15884;BME280;8040;50.254;10.960;2023-02-17T08:08:45;98715.16;;;9.90;84.09
15884;BME280;8040;50.254;10.960;2023-02-17T08:11:29;98713.97;;;9.96;83.88
15884;BME280;8040;50.254;10.960;2023-02-17T08:14:13;98721.56;;;9.99;84.05
15884;BME280;8040;50.254;10.960;2023-02-17T08:16:39;98714.28;;;9.94;84.29
15884;BME280;8040;50.254;10.960;2023-02-17T08:19:04;98697.16;;;9.99;84.51
15884;BME280;8040;50.254;10.960;2023-02-17T08:21:30;98702.81;;;10.07;83.67
15884;BME280;8040;50.254;10.960;2023-02-17T08:23:56;98713.91;;;10.11;83.78
15884;BME280;8040;50.254;10.960;2023-02-17T08:26:22;98707.19;;;9.98;83.87
15884;BME280;8040;50.254;10.960;2023-02-17T08:28:47;98711.75;;;10.08;84.37
15884;BME280;8040;50.254;10.960;2023-02-17T08:31:17;98723.03;;;10.20;83.85
15884;BME280;8040;50.254;10.960;2023-02-17T08:33:42;98711.19;;;10.11;83.89
15884;BME280;8040;50.254;10.960;2023-02-17T08:36:08;98711.19;;;10.11;84.07
15884;BME280;8040;50.254;10.960;2023-02-17T08:38:34;98707.63;;;10.15;83.92
15884;BME280;8040;50.254;10.960;2023-02-17T08:40:59;98691.94;;;10.12;84.40
15884;BME280;8040;50.254;10.960;2023-02-17T08:43:25;98716.38;;;10.36;83.92
15884;BME280;8040;50.254;10.960;2023-02-17T08:45:50;98716.31;;;10.41;83.37
15884;BME280;8040;50.254;10.960;2023-02-17T08:48:18;98707.59;;;10.44;83.51
15884;BME280;8040;50.254;10.960;2023-02-17T08:50:46;98703.31;;;10.38;83.33
15884;BME280;8040;50.254;10.960;2023-02-17T08:53:11;98697.72;;;10.29;83.35
15884;BME280;8040;50.254;10.960;2023-02-17T08:55:36;98701.44;;;10.38;83.59
15884;BME280;8040;50.254;10.960;2023-02-17T08:58:02;98704.59;;;10.45;83.09
15884;BME280;8040;50.254;10.960;2023-02-17T09:00:27;98691.41;;;10.39;82.81
15884;BME280;8040;50.254;10.960;2023-02-17T09:02:53;98703.28;;;10.43;82.79
15884;BME280;8040;50.254;10.960;2023-02-17T09:05:18;98701.78;;;10.55;82.53
15884;BME280;8040;50.254;10.960;2023-02-17T09:07:44;98690.81;;;10.42;82.61
15884;BME280;8040;50.254;10.960;2023-02-17T09:10:10;98708.66;;;10.48;83.10
15884;BME280;8040;50.254;10.960;2023-02-17T09:12:36;98700.50;;;10.48;83.07
15884;BME280;8040;50.254;10.960;2023-02-17T09:15:03;98697.75;;;10.53;82.55
15884;BME280;8040;50.254;10.960;2023-02-17T09:17:30;98710.91;;;10.64;82.32
15884;BME280;8040;50.254;10.960;2023-02-17T09:19:56;98690.72;;;10.52;82.48
15884;BME280;8040;50.254;10.960;2023-02-17T09:22:21;98708.41;;;10.68;82.63
15884;BME280;8040;50.254;10.960;2023-02-17T09:24:47;98699.78;;;10.66;82.53
15884;BME280;8040;50.254;10.960;2023-02-17T09:27:12;98680.78;;;10.66;82.61
15884;BME280;8040;50.254;10.960;2023-02-17T09:29:38;98694.09;;;10.86;82.45
15884;BME280;8040;50.254;10.960;2023-02-17T09:32:07;98714.03;;;11.00;81.37
15884;BME280;8040;50.254;10.960;2023-02-17T09:34:38;98709.31;;;11.05;81.02
15884;BME280;8040;50.254;10.960;2023-02-17T09:37:09;98710.66;;;11.08;80.49
15884;BME280;8040;50.254;10.960;2023-02-17T09:39:35;98702.22;;;11.09;80.42
15884;BME280;8040;50.254;10.960;2023-02-17T09:42:01;98692.53;;;11.03;80.36
15884;BME280;8040;50.254;10.960;2023-02-17T09:44:41;98696.31;;;11.02;80.47
15884;BME280;8040;50.254;10.960;2023-02-17T09:47:16;98690.09;;;11.02;80.10
15884;BME280;8040;50.254;10.960;2023-02-17T09:49:47;98698.19;;;11.07;80.15
15884;BME280;8040;50.254;10.960;2023-02-17T09:54:56;98676.91;;;11.14;79.81
15884;BME280;8040;50.254;10.960;2023-02-17T09:57:27;98676.69;;;11.10;79.74
15884;BME280;8040;50.254;10.960;2023-02-17T10:00:18;98700.41;;;11.23;79.18
15884;BME280;8040;50.254;10.960;2023-02-17T10:03:11;98697.84;;;11.32;79.30
15884;BME280;8040;50.254;10.960;2023-02-17T10:05:44;98689.47;;;11.47;78.79
15884;BME280;8040;50.254;10.960;2023-02-17T10:08:24;98684.94;;;11.61;77.84
15884;BME280;8040;50.254;10.960;2023-02-17T10:11:01;98693.44;;;11.54;77.22
15884;BME280;8040;50.254;10.960;2023-02-17T10:13:30;98676.31;;;11.54;77.44
15884;BME280;8040;50.254;10.960;2023-02-17T10:15:59;98674.19;;;11.51;77.31
15884;BME280;8040;50.254;10.960;2023-02-17T10:18:40;98681.44;;;11.55;77.14
15884;BME280;8040;50.254;10.960;2023-02-17T10:21:16;98699.94;;;11.58;77.51
15884;BME280;8040;50.254;10.960;2023-02-17T10:23:50;98678.59;;;11.47;77.66
15884;BME280;8040;50.254;10.960;2023-02-17T10:26:25;98670.44;;;11.47;77.76
15884;BME280;8040;50.254;10.960;2023-02-17T10:29:36;98700.03;;;11.48;78.17
15884;BME280;8040;50.254;10.960;2023-02-17T10:32:23;98677.66;;;11.38;78.65
15884;BME280;8040;50.254;10.960;2023-02-17T10:37:29;98677.50;;;11.48;78.12
15884;BME280;8040;50.254;10.960;2023-02-17T10:39:58;98687.41;;;11.39;78.60
15884;BME280;8040;50.254;10.960;2023-02-17T10:42:32;98694.38;;;11.45;78.60
15884;BME280;8040;50.254;10.960;2023-02-17T10:45:05;98688.75;;;11.41;78.68
15884;BME280;8040;50.254;10.960;2023-02-17T10:47:35;98685.88;;;11.51;78.63
15884;BME280;8040;50.254;10.960;2023-02-17T10:50:05;98697.59;;;11.47;79.13
15884;BME280;8040;50.254;10.960;2023-02-17T10:52:39;98669.22;;;11.39;79.34
15884;BME280;8040;50.254;10.960;2023-02-17T10:55:17;98681.91;;;11.44;79.98
15884;BME280;8040;50.254;10.960;2023-02-17T10:57:47;98681.31;;;11.47;80.18
15884;BME280;8040;50.254;10.960;2023-02-17T11:00:17;98680.53;;;11.46;80.68
15884;BME280;8040;50.254;10.960;2023-02-17T11:02:45;98659.44;;;11.38;80.99
15884;BME280;8040;50.254;10.960;2023-02-17T11:05:32;98677.72;;;11.51;80.88
15884;BME280;8040;50.254;10.960;2023-02-17T11:08:03;98678.75;;;11.55;81.08
15884;BME280;8040;50.254;10.960;2023-02-17T11:10:33;98676.84;;;11.56;81.01
15884;BME280;8040;50.254;10.960;2023-02-17T11:13:03;98674.47;;;11.49;80.97
15884;BME280;8040;50.254;10.960;2023-02-17T11:15:45;98666.63;;;11.48;81.28
15884;BME280;8040;50.254;10.960;2023-02-17T11:18:19;98666.03;;;11.51;81.16
15884;BME280;8040;50.254;10.960;2023-02-17T11:20:46;98668.16;;;11.54;81.26
15884;BME280;8040;50.254;10.960;2023-02-17T11:25:41;98660.19;;;11.44;82.17
15884;BME280;8040;50.254;10.960;2023-02-17T11:28:13;98632.72;;;11.27;82.22
15884;BME280;8040;50.254;10.960;2023-02-17T11:30:48;98647.50;;;11.39;82.35
15884;BME280;8040;50.254;10.960;2023-02-17T11:33:20;98644.47;;;11.41;82.26
15884;BME280;8040;50.254;10.960;2023-02-17T11:35:52;98659.56;;;11.47;81.99
15884;BME280;8040;50.254;10.960;2023-02-17T11:38:20;98658.78;;;11.46;82.33
15884;BME280;8040;50.254;10.960;2023-02-17T11:40:53;98646.31;;;11.45;82.43
15884;BME280;8040;50.254;10.960;2023-02-17T11:43:19;98646.06;;;11.42;82.35
15884;BME280;8040;50.254;10.960;2023-02-17T11:49:01;98647.38;;;11.44;82.47
15884;BME280;8040;50.254;10.960;2023-02-17T11:54:41;98646.81;;;11.66;81.59
15884;BME280;8040;50.254;10.960;2023-02-17T11:57:33;98645.34;;;11.55;82.18
15884;BME280;8040;50.254;10.960;2023-02-17T12:11:00;98640.88;;;11.64;81.63
15884;BME280;8040;50.254;10.960;2023-02-17T12:19:40;98648.13;;;11.68;82.32
15884;BME280;8040;50.254;10.960;2023-02-17T12:24:53;98637.69;;;11.75;81.93
15884;BME280;8040;50.254;10.960;2023-02-17T12:33:02;98627.25;;;11.82;81.46
15884;BME280;8040;50.254;10.960;2023-02-17T12:38:14;98605.81;;;11.81;81.16
15884;BME280;8040;50.254;10.960;2023-02-17T12:40:50;98623.03;;;11.90;81.39
15884;BME280;8040;50.254;10.960;2023-02-17T12:45:50;98605.81;;;11.81;81.61
15884;BME280;8040;50.254;10.960;2023-02-17T12:48:37;98595.50;;;11.78;81.81
15884;BME280;8040;50.254;10.960;2023-02-17T12:51:11;98571.25;;;11.81;81.73
15884;BME280;8040;50.254;10.960;2023-02-17T12:53:47;98586.38;;;11.87;81.78
15884;BME280;8040;50.254;10.960;2023-02-17T12:56:32;98574.72;;;11.87;81.67
15884;BME280;8040;50.254;10.960;2023-02-17T12:59:11;98544.41;;;11.80;82.13
15884;BME280;8040;50.254;10.960;2023-02-17T13:01:44;98521.72;;;11.71;82.11
15884;BME280;8040;50.254;10.960;2023-02-17T13:04:14;98555.28;;;11.93;81.85
15884;BME280;8040;50.254;10.960;2023-02-17T13:06:49;98572.50;;;12.02;81.39
15884;BME280;8040;50.254;10.960;2023-02-17T13:09:36;98580.06;;;12.05;81.59
15884;BME280;8040;50.254;10.960;2023-02-17T13:14:53;98569.97;;;11.92;81.42
15884;BME280;8040;50.254;10.960;2023-02-17T13:22:38;98572.09;;;12.09;81.20
15884;BME280;8040;50.254;10.960;2023-02-17T13:25:04;98570.19;;;12.09;81.47
15884;BME280;8040;50.254;10.960;2023-02-17T13:27:32;98565.66;;;12.18;81.16
15884;BME280;8040;50.254;10.960;2023-02-17T13:32:29;98558.03;;;12.34;80.48
15884;BME280;8040;50.254;10.960;2023-02-17T13:35:41;98548.34;;;12.41;80.23
15884;BME280;8040;50.254;10.960;2023-02-17T13:37:48;98557.81;;;12.44;79.71
15884;BME280;8040;50.254;10.960;2023-02-17T13:42:48;98570.38;;;12.53;79.31
15884;BME280;8040;50.254;10.960;2023-02-17T13:45:26;98552.75;;;12.51;79.16
15884;BME280;8040;50.254;10.960;2023-02-17T13:47:57;98558.59;;;12.58;79.05
15884;BME280;8040;50.254;10.960;2023-02-17T13:50:35;98553.66;;;12.60;79.25
15884;BME280;8040;50.254;10.960;2023-02-17T13:53:05;98539.78;;;12.48;78.91
15884;BME280;8040;50.254;10.960;2023-02-17T13:55:43;98530.41;;;12.54;78.98
15884;BME280;8040;50.254;10.960;2023-02-17T13:58:09;98526.25;;;12.56;78.75
15884;BME280;8040;50.254;10.960;2023-02-17T14:00:35;98521.72;;;12.52;78.99
15884;BME280;8040;50.254;10.960;2023-02-17T14:03:14;98537.09;;;12.70;78.89
15884;BME280;8040;50.254;10.960;2023-02-17T14:05:45;98528.66;;;12.58;79.12
15884;BME280;8040;50.254;10.960;2023-02-17T14:08:16;98538.94;;;12.74;78.79
15884;BME280;8040;50.254;10.960;2023-02-17T14:10:42;98536.78;;;12.85;77.77
15884;BME280;8040;50.254;10.960;2023-02-17T14:13:12;98526.47;;;12.82;77.73
15884;BME280;8040;50.254;10.960;2023-02-17T14:16:06;98535.84;;;12.89;77.49
15884;BME280;8040;50.254;10.960;2023-02-17T14:18:39;98524.75;;;12.86;77.82
15884;BME280;8040;50.254;10.960;2023-02-17T14:21:09;98533.00;;;12.94;77.67
15884;BME280;8040;50.254;10.960;2023-02-17T14:24:01;98532.81;;;12.91;77.60
15884;BME280;8040;50.254;10.960;2023-02-17T14:26:35;98516.47;;;12.91;77.17
15884;BME280;8040;50.254;10.960;2023-02-17T14:29:04;98510.84;;;13.01;76.90
15884;BME280;8040;50.254;10.960;2023-02-17T14:32:01;98517.44;;;13.08;76.52
15884;BME280;8040;50.254;10.960;2023-02-17T14:34:32;98519.38;;;13.08;76.24
15884;BME280;8040;50.254;10.960;2023-02-17T14:40:16;98512.03;;;12.95;76.35
15884;BME280;8040;50.254;10.960;2023-02-17T14:42:42;98516.91;;;12.98;76.26